createdAt,value
2022-08-03T00:01:52.833Z,23.94
2022-08-03T00:03:56.790Z,23.97
2022-08-03T00:06:03.532Z,24.03
2022-08-03T00:08:07.688Z,24.07
2022-08-03T00:10:13.707Z,24.12
2022-08-03T00:12:17.608Z,24.05
2022-08-03T00:14:21.408Z,23.94
2022-08-03T00:16:26.349Z,23.80
2022-08-03T00:18:29.762Z,23.76
2022-08-03T00:20:33.229Z,23.78
2022-08-03T00:22:36.883Z,23.75
2022-08-03T00:24:40.323Z,23.82
2022-08-03T00:26:45.242Z,23.93
2022-08-03T00:28:48.804Z,23.94
2022-08-03T00:30:52.216Z,24.08
2022-08-03T00:32:55.851Z,24.11
2022-08-03T00:34:59.512Z,24.02
2022-08-03T00:37:04.451Z,24.07
2022-08-03T00:39:08.244Z,24.15
2022-08-03T00:41:11.826Z,24.12
2022-08-03T00:43:20.431Z,24.16
2022-08-03T00:45:25.619Z,24.03
2022-08-03T00:47:29.180Z,24.01
2022-08-03T00:49:32.658Z,23.90
2022-08-03T00:51:36.218Z,23.93
2022-08-03T00:53:39.875Z,23.93
2022-08-03T00:55:43.616Z,23.92
2022-08-03T00:57:47.721Z,23.92
2022-08-03T00:59:52.862Z,23.95
2022-08-03T01:01:56.675Z,23.94
2022-08-03T01:04:00.497Z,23.91
2022-08-03T01:06:11.885Z,23.84
2022-08-03T01:08:24.151Z,23.76
2022-08-03T01:10:38.615Z,23.63
2022-08-03T01:12:49.758Z,23.37
2022-08-03T01:15:01.235Z,23.22
2022-08-03T01:17:14.401Z,23.01
2022-08-03T01:19:36.106Z,22.87
2022-08-03T01:21:54.050Z,22.70
2022-08-03T01:24:08.283Z,22.65
2022-08-03T01:26:35.881Z,22.63
2022-08-03T01:29:00.585Z,22.61
2022-08-03T01:31:09.532Z,22.48
2022-08-03T01:33:16.848Z,22.48
2022-08-03T01:35:27.219Z,22.63
2022-08-03T01:37:36.326Z,22.73
2022-08-03T01:39:44.051Z,22.75
2022-08-03T01:41:51.736Z,22.88
2022-08-03T01:44:29.688Z,22.93
2022-08-03T01:46:22.870Z,22.98
2022-08-03T01:48:27.407Z,23.00
2022-08-03T01:50:34.344Z,23.01
2022-08-03T01:52:41.330Z,23.00
2022-08-03T01:54:47.615Z,23.00
2022-08-03T01:56:53.475Z,23.08
2022-08-03T01:58:59.866Z,23.11
2022-08-03T02:01:04.667Z,23.04
2022-08-03T02:03:10.892Z,23.16
2022-08-03T02:05:15.868Z,22.95
2022-08-03T02:07:20.665Z,23.29
2022-08-03T02:09:24.837Z,23.19
2022-08-03T02:11:31.730Z,23.30
2022-08-03T02:13:36.504Z,23.28
2022-08-03T02:15:40.937Z,23.30
2022-08-03T02:17:46.811Z,23.35
2022-08-03T02:19:52.737Z,23.33
2022-08-03T02:22:01.119Z,23.22
2022-08-03T02:24:06.844Z,23.25
2022-08-03T02:26:15.793Z,23.18
2022-08-03T02:28:21.959Z,23.10
2022-08-03T02:30:31.876Z,23.16
2022-08-03T02:32:38.902Z,23.09
2022-08-03T02:34:46.212Z,22.88
2022-08-03T02:36:54.709Z,22.82
2022-08-03T02:39:01.700Z,22.86
2022-08-03T02:41:09.402Z,22.81
2022-08-03T02:43:19.016Z,22.74
2022-08-03T02:45:27.278Z,22.65
2022-08-03T02:47:53.588Z,22.56
2022-08-03T02:49:58.448Z,22.67
2022-08-03T02:52:05.788Z,22.70
2022-08-03T02:54:19.253Z,22.62
2022-08-03T02:56:25.219Z,22.67
2022-08-03T02:58:30.437Z,22.68
2022-08-03T03:00:35.474Z,22.43
2022-08-03T03:02:43.991Z,22.61
2022-08-03T03:05:51.078Z,22.68
2022-08-03T03:07:18.698Z,22.77
2022-08-03T03:09:22.823Z,22.85
2022-08-03T03:11:27.214Z,22.76
2022-08-03T03:13:31.956Z,22.80
2022-08-03T03:15:37.790Z,22.80
2022-08-03T03:17:43.813Z,22.71
2022-08-03T03:19:48.510Z,22.73
2022-08-03T03:21:53.415Z,22.66
2022-08-03T03:23:58.912Z,22.55
2022-08-03T03:26:03.030Z,22.60
2022-08-03T03:28:07.208Z,22.60
2022-08-03T03:30:11.572Z,22.51
2022-08-03T03:32:15.656Z,22.66
2022-08-03T03:34:20.235Z,22.61
2022-08-03T03:36:23.657Z,22.69
2022-08-03T03:38:27.421Z,22.50
2022-08-03T03:40:32.355Z,22.48
2022-08-03T03:42:36.015Z,22.54
2022-08-03T03:44:39.703Z,22.49
2022-08-03T03:46:43.496Z,22.46
2022-08-03T03:48:47.105Z,22.35
2022-08-03T03:50:51.343Z,22.41
2022-08-03T03:52:54.823Z,22.34
2022-08-03T03:55:01.037Z,22.32
2022-08-03T03:57:06.536Z,22.34
2022-08-03T03:59:10.024Z,22.41
2022-08-03T04:01:14.332Z,22.49
2022-08-03T04:03:17.969Z,22.39
2022-08-03T04:05:42.915Z,22.59
2022-08-03T04:08:16.072Z,22.48
2022-08-03T04:10:48.527Z,22.54
2022-08-03T04:12:55.144Z,22.51
2022-08-03T04:15:02.041Z,22.57
2022-08-03T04:17:09.911Z,22.61
2022-08-03T04:19:23.088Z,22.61
2022-08-03T04:21:27.785Z,22.65
2022-08-03T04:23:34.804Z,22.59
2022-08-03T04:25:40.850Z,22.49
2022-08-03T04:27:45.497Z,22.45
2022-08-03T04:30:11.837Z,22.38
2022-08-03T04:32:16.629Z,22.36
2022-08-03T04:34:20.826Z,22.38
2022-08-03T04:36:32.998Z,22.48
2022-08-03T04:38:45.216Z,22.41
2022-08-03T04:40:49.550Z,22.47
2022-08-03T04:42:56.163Z,22.46
2022-08-03T04:45:01.697Z,22.43
2022-08-03T04:47:06.979Z,22.60
2022-08-03T04:49:11.258Z,22.47
2022-08-03T04:51:15.939Z,22.46
2022-08-03T04:53:19.527Z,22.29
2022-08-03T04:55:29.490Z,22.12
2022-08-03T04:57:32.981Z,21.97
2022-08-03T04:59:36.429Z,21.83
2022-08-03T05:01:44.647Z,21.95
2022-08-03T05:03:49.593Z,22.01
2022-08-03T05:05:53.100Z,22.03
2022-08-03T05:08:05.993Z,21.89
2022-08-03T05:10:16.378Z,22.02
2022-08-03T05:12:20.291Z,22.02
2022-08-03T05:14:28.186Z,22.07
2022-08-03T05:16:32.063Z,22.22
2022-08-03T05:18:35.909Z,22.19
2022-08-03T05:20:40.746Z,22.39
2022-08-03T05:22:44.220Z,22.49
2022-08-03T05:24:47.729Z,22.43
2022-08-03T05:26:51.286Z,22.47
2022-08-03T05:28:54.759Z,22.64
2022-08-03T05:30:58.439Z,22.64
2022-08-03T05:33:02.412Z,22.74
2022-08-03T05:36:01.805Z,22.82
2022-08-03T05:37:31.581Z,22.90
2022-08-03T05:39:35.379Z,22.85
2022-08-03T05:41:38.829Z,22.89
2022-08-03T05:43:42.312Z,22.92
2022-08-03T05:45:45.777Z,22.78
2022-08-03T05:47:50.960Z,22.77
2022-08-03T05:49:54.363Z,22.73
2022-08-03T05:51:59.988Z,22.63
2022-08-03T05:54:14.850Z,22.56
2022-08-03T05:56:18.352Z,22.57
2022-08-03T05:58:22.049Z,22.38
2022-08-03T06:00:25.721Z,22.52
2022-08-03T06:02:29.513Z,22.52
2022-08-03T06:04:33.156Z,22.44
2022-08-03T06:06:36.697Z,22.39
2022-08-03T06:08:40.793Z,22.59
2022-08-03T06:10:45.534Z,22.74
2022-08-03T06:12:49.482Z,22.79
2022-08-03T06:14:52.864Z,22.81
2022-08-03T06:16:56.384Z,22.78
2022-08-03T06:18:59.758Z,22.88
2022-08-03T06:21:14.651Z,22.92
2022-08-03T06:23:19.556Z,22.99
2022-08-03T06:25:23.355Z,23.11
2022-08-03T06:27:36.505Z,23.20
2022-08-03T06:29:40.893Z,23.24
2022-08-03T06:31:44.573Z,23.28
2022-08-03T06:33:48.423Z,23.44
2022-08-03T06:36:12.170Z,23.41
2022-08-03T06:38:15.872Z,23.44
2022-08-03T06:40:24.550Z,23.39
2022-08-03T06:42:30.248Z,23.42
2022-08-03T06:44:33.677Z,23.42
2022-08-03T06:46:37.075Z,23.31
2022-08-03T06:48:40.666Z,23.31
2022-08-03T06:50:44.604Z,23.34
2022-08-03T06:52:48.063Z,23.44
2022-08-03T06:54:51.544Z,23.45
2022-08-03T06:56:55.194Z,23.55
2022-08-03T06:59:00.336Z,23.69
2022-08-03T07:01:03.797Z,23.75
2022-08-03T07:03:07.327Z,23.48
2022-08-03T07:05:11.242Z,23.79
2022-08-03T07:07:15.212Z,23.82
2022-08-03T07:09:18.635Z,23.81
2022-08-03T07:11:22.085Z,23.77
2022-08-03T07:13:25.533Z,23.82
2022-08-03T07:15:38.397Z,23.92
2022-08-03T07:17:54.379Z,23.87
2022-08-03T07:19:57.978Z,23.98
2022-08-03T07:22:04.290Z,23.94
2022-08-03T07:24:08.200Z,23.77
2022-08-03T07:26:11.674Z,24.17
2022-08-03T07:28:15.178Z,24.17
2022-08-03T07:30:19.098Z,24.16
2022-08-03T07:32:24.385Z,24.23
2022-08-03T07:34:27.990Z,24.30
2022-08-03T07:36:32.198Z,24.39
2022-08-03T07:38:38.516Z,24.46
2022-08-03T07:40:45.849Z,24.48
2022-08-03T07:42:52.108Z,24.58
2022-08-03T07:44:57.304Z,24.58
2022-08-03T07:47:03.328Z,24.77
2022-08-03T07:49:08.916Z,24.80
2022-08-03T07:51:12.373Z,24.89
2022-08-03T07:53:15.817Z,24.93
2022-08-03T07:55:21.461Z,25.03
2022-08-03T07:57:25.044Z,24.91
2022-08-03T07:59:28.533Z,25.08
2022-08-03T08:01:53.508Z,24.97
2022-08-03T08:03:57.007Z,25.03
2022-08-03T08:06:01.741Z,25.18
2022-08-03T08:08:05.892Z,25.30
2022-08-03T08:10:10.964Z,25.23
2022-08-03T08:12:15.683Z,25.38
2022-08-03T08:14:19.599Z,25.49
2022-08-03T08:16:23.028Z,25.59
2022-08-03T08:18:29.494Z,25.71
2022-08-03T08:20:34.976Z,25.82
2022-08-03T08:22:42.905Z,25.77
2022-08-03T08:24:49.097Z,25.82
2022-08-03T08:26:54.438Z,25.81
2022-08-03T08:28:57.845Z,25.82
2022-08-03T08:31:01.309Z,25.90
2022-08-03T08:33:05.032Z,25.98
2022-08-03T08:35:10.323Z,26.09
2022-08-03T08:37:13.756Z,26.10
2022-08-03T08:39:18.539Z,26.23
2022-08-03T08:41:22.694Z,26.33
2022-08-03T08:43:26.218Z,26.31
2022-08-03T08:45:29.906Z,26.29
2022-08-03T08:47:51.433Z,26.36
2022-08-03T08:50:09.186Z,26.50
2022-08-03T08:52:22.076Z,26.57
2022-08-03T08:54:32.477Z,26.52
2022-08-03T08:56:38.469Z,26.65
2022-08-03T08:58:48.111Z,26.81
2022-08-03T09:00:53.530Z,26.88
2022-08-03T09:02:57.212Z,26.91
2022-08-03T09:05:06.910Z,26.94
2022-08-03T09:07:20.027Z,27.10
2022-08-03T09:10:04.790Z,27.17
2022-08-03T09:12:00.979Z,27.15
2022-08-03T09:14:08.341Z,27.13
2022-08-03T09:16:13.830Z,27.32
2022-08-03T09:18:32.336Z,27.44
2022-08-03T09:20:37.157Z,27.47
2022-08-03T09:22:53.765Z,27.56
2022-08-03T09:25:22.962Z,27.78
2022-08-03T09:27:23.883Z,27.91
2022-08-03T09:29:27.406Z,27.91
2022-08-03T09:31:32.213Z,28.02
2022-08-03T09:33:48.390Z,28.16
2022-08-03T09:35:53.968Z,28.26
2022-08-03T09:38:14.220Z,28.37
2022-08-03T09:40:35.698Z,28.48
2022-08-03T09:42:57.546Z,28.64
2022-08-03T09:45:01.128Z,28.68
2022-08-03T09:47:05.772Z,28.76
2022-08-03T09:49:13.072Z,28.77
2022-08-03T09:52:27.322Z,28.80
2022-08-03T09:53:49.579Z,28.81
2022-08-03T09:56:33.467Z,28.76
2022-08-03T09:58:30.944Z,28.81
2022-08-03T10:00:46.645Z,28.88
2022-08-03T10:02:50.635Z,28.98
2022-08-03T10:04:55.281Z,28.96
2022-08-03T10:07:07.687Z,28.97
2022-08-03T10:09:12.677Z,29.16
2022-08-03T10:11:30.672Z,29.10
2022-08-03T10:13:37.229Z,29.21
2022-08-03T10:16:22.329Z,29.25
2022-08-03T10:18:04.540Z,29.40
2022-08-03T10:20:10.263Z,29.40
2022-08-03T10:22:15.539Z,29.54
2022-08-03T10:24:25.437Z,29.57
2022-08-03T10:26:32.103Z,29.65
2022-08-03T10:28:44.953Z,29.70
2022-08-03T10:30:51.220Z,29.86
2022-08-03T10:33:01.888Z,29.95
2022-08-03T10:35:19.566Z,29.86
2022-08-03T10:37:26.088Z,29.92
2022-08-03T10:39:31.423Z,30.06
2022-08-03T10:41:40.912Z,30.03
2022-08-03T10:43:51.645Z,30.22
2022-08-03T10:45:56.186Z,30.35
2022-08-03T10:48:01.238Z,30.61
2022-08-03T10:50:06.189Z,30.63
2022-08-03T10:52:13.465Z,30.72
2022-08-03T10:54:58.781Z,30.73
2022-08-03T10:57:20.469Z,30.79
2022-08-03T10:59:57.077Z,30.85
2022-08-03T11:02:01.892Z,31.00
2022-08-03T11:04:19.127Z,31.02
2022-08-03T11:06:25.486Z,30.94
2022-08-03T11:08:31.465Z,31.06
2022-08-03T11:10:34.870Z,31.07
2022-08-03T11:12:40.027Z,31.13
2022-08-03T11:14:48.226Z,31.18
2022-08-03T11:17:07.843Z,31.32
2022-08-03T11:19:22.680Z,31.56
2022-08-03T11:22:07.565Z,31.62
2022-08-03T11:24:11.012Z,31.60
2022-08-03T11:26:18.574Z,31.75
2022-08-03T11:28:29.397Z,31.67
2022-08-03T11:30:34.181Z,31.85
2022-08-03T11:32:59.854Z,32.02
2022-08-03T11:35:12.620Z,31.95
2022-08-03T11:37:28.543Z,32.24
2022-08-03T11:39:43.502Z,32.07
2022-08-03T11:41:46.937Z,32.23
2022-08-03T11:43:50.277Z,32.26
2022-08-03T11:45:58.940Z,32.37
2022-08-03T11:48:14.733Z,32.21
2022-08-03T11:50:20.173Z,32.16
2022-08-03T11:52:27.282Z,31.90
2022-08-03T11:54:32.674Z,32.02
2022-08-03T11:56:45.907Z,32.08
2022-08-03T11:59:10.956Z,32.08
2022-08-03T12:01:21.213Z,31.97
2022-08-03T12:03:26.480Z,31.94
2022-08-03T12:05:51.202Z,32.27
2022-08-03T12:08:04.123Z,32.16
2022-08-03T12:10:11.425Z,32.37
2022-08-03T12:12:17.229Z,32.40
2022-08-03T12:14:49.326Z,32.50
2022-08-03T12:16:48.124Z,32.40
2022-08-03T12:18:56.552Z,32.58
2022-08-03T12:21:08.224Z,32.92
2022-08-03T12:23:12.790Z,33.14
2022-08-03T12:25:39.548Z,33.45
2022-08-03T12:27:43.370Z,33.64
2022-08-03T12:29:57.233Z,33.73
2022-08-03T12:32:02.624Z,33.44
2022-08-03T12:34:08.798Z,33.37
2022-08-03T12:36:13.492Z,33.24
2022-08-03T12:38:22.820Z,33.37
2022-08-03T12:40:28.474Z,33.26
2022-08-03T12:42:32.728Z,32.90
2022-08-03T12:44:37.465Z,32.92
2022-08-03T12:46:47.456Z,32.86
2022-08-03T12:49:06.837Z,32.83
2022-08-03T12:51:11.776Z,32.96
2022-08-03T12:53:30.041Z,33.07
2022-08-03T12:56:01.481Z,33.33
2022-08-03T12:58:01.255Z,33.75
2022-08-03T13:00:21.376Z,34.07
2022-08-03T13:02:32.788Z,34.21
2022-08-03T13:04:37.348Z,34.38
2022-08-03T13:06:40.822Z,34.29
2022-08-03T13:08:47.908Z,34.21
2022-08-03T13:10:51.559Z,34.39
2022-08-03T13:12:58.397Z,34.44
2022-08-03T13:15:02.543Z,34.58
2022-08-03T13:17:07.075Z,34.42
2022-08-03T13:19:15.728Z,34.32
2022-08-03T13:21:21.584Z,34.14
2022-08-03T13:23:24.993Z,33.99
2022-08-03T13:25:29.859Z,34.06
2022-08-03T13:28:04.353Z,34.19
2022-08-03T13:29:57.214Z,34.55
2022-08-03T13:32:00.746Z,34.60
2022-08-03T13:34:04.116Z,34.62
2022-08-03T13:36:08.045Z,34.71
2022-08-03T13:38:11.530Z,34.98
2022-08-03T13:40:15.191Z,35.22
2022-08-03T13:42:20.090Z,35.08
2022-08-03T13:44:29.258Z,35.31
2022-08-03T13:46:34.463Z,35.45
2022-08-03T13:48:38.073Z,35.34
2022-08-03T13:50:43.157Z,34.97
2022-08-03T13:52:47.476Z,35.07
2022-08-03T13:54:50.918Z,35.26
2022-08-03T13:56:57.805Z,35.22
2022-08-03T13:59:06.148Z,35.72
2022-08-03T14:01:09.958Z,35.93
2022-08-03T14:03:14.662Z,35.88
2022-08-03T14:05:18.538Z,36.22
2022-08-03T14:07:21.921Z,36.38
2022-08-03T14:09:25.621Z,36.42
2022-08-03T14:12:04.014Z,36.22
2022-08-03T14:13:52.969Z,35.94
2022-08-03T14:15:57.751Z,35.98
2022-08-03T14:18:02.555Z,35.95
2022-08-03T14:20:36.288Z,36.14
2022-08-03T14:22:30.730Z,36.37
2022-08-03T14:24:34.114Z,36.51
2022-08-03T14:26:37.588Z,36.40
2022-08-03T14:28:41.920Z,36.44
2022-08-03T14:30:45.474Z,36.54
2022-08-03T14:32:50.292Z,36.63
2022-08-03T14:34:53.825Z,36.18
2022-08-03T14:36:57.290Z,36.28
2022-08-03T14:39:01.591Z,36.69
2022-08-03T14:41:05.184Z,36.74
2022-08-03T14:43:08.569Z,36.62
2022-08-03T14:45:20.353Z,36.24
2022-08-03T14:47:24.271Z,36.58
2022-08-03T14:50:37.685Z,36.55
2022-08-03T14:51:53.826Z,36.73
2022-08-03T14:53:57.578Z,36.81
2022-08-03T14:56:01.028Z,36.84
2022-08-03T14:58:05.779Z,36.73
2022-08-03T15:00:23.459Z,36.71
2022-08-03T15:02:27.918Z,36.60
2022-08-03T15:04:32.844Z,36.22
2022-08-03T15:06:36.678Z,36.24
2022-08-03T15:08:40.100Z,36.39
2022-08-03T15:10:44.892Z,36.68
2022-08-03T15:12:49.060Z,36.94
2022-08-03T15:14:52.506Z,36.79
2022-08-03T15:16:55.923Z,37.18
2022-08-03T15:19:00.852Z,37.35
2022-08-03T15:21:05.705Z,37.41
2022-08-03T15:23:09.126Z,37.24
2022-08-03T15:26:32.397Z,37.46
2022-08-03T15:27:36.377Z,37.10
2022-08-03T15:30:07.060Z,37.09
2022-08-03T15:32:13.644Z,36.46
2022-08-03T15:34:17.071Z,36.37
2022-08-03T15:36:22.272Z,36.47
2022-08-03T15:38:26.360Z,36.52
2022-08-03T15:40:29.960Z,36.25
2022-08-03T15:42:35.999Z,35.94
2022-08-03T15:44:39.663Z,35.62
2022-08-03T15:46:43.127Z,35.41
2022-08-03T15:48:46.875Z,35.28
2022-08-03T15:50:50.411Z,35.14
2022-08-03T15:52:56.990Z,35.08
2022-08-03T15:55:00.556Z,34.95
2022-08-03T15:57:04.031Z,34.79
2022-08-03T15:59:13.379Z,34.87
2022-08-03T16:01:19.791Z,34.72
2022-08-03T16:03:23.581Z,34.73
2022-08-03T16:05:27.022Z,35.10
2022-08-03T16:08:03.250Z,35.26
2022-08-03T16:10:10.527Z,35.28
2022-08-03T16:12:16.426Z,35.46
2022-08-03T16:14:34.261Z,35.72
2022-08-03T16:16:41.316Z,35.87
2022-08-03T16:18:44.805Z,36.20
2022-08-03T16:20:48.804Z,36.16
2022-08-03T16:22:52.351Z,36.14
2022-08-03T16:24:56.095Z,36.23
2022-08-03T16:27:01.078Z,36.33
2022-08-03T16:29:05.126Z,36.39
2022-08-03T16:31:27.198Z,36.53
2022-08-03T16:33:30.626Z,36.63
2022-08-03T16:35:34.419Z,36.70
2022-08-03T16:37:39.173Z,36.64
2022-08-03T16:39:42.994Z,36.69
2022-08-03T16:41:54.378Z,36.78
2022-08-03T16:44:09.907Z,36.79
2022-08-03T16:46:13.409Z,36.73
2022-08-03T16:48:17.496Z,36.70
2022-08-03T16:50:21.096Z,36.52
2022-08-03T16:52:25.950Z,36.55
2022-08-03T16:54:29.306Z,36.56
2022-08-03T16:56:32.800Z,36.54
2022-08-03T16:58:41.906Z,36.55
2022-08-03T17:00:47.914Z,36.69
2022-08-03T17:02:58.550Z,36.85
2022-08-03T17:05:02.159Z,36.77
2022-08-03T17:07:06.883Z,36.72
2022-08-03T17:09:15.422Z,36.55
2022-08-03T17:11:21.779Z,36.52
2022-08-03T17:13:38.750Z,36.49
2022-08-03T17:15:57.967Z,36.56
2022-08-03T17:18:06.425Z,36.63
2022-08-03T17:20:13.338Z,36.59
2022-08-03T17:22:20.773Z,36.44
2022-08-03T17:24:30.037Z,36.24
2022-08-03T17:26:38.412Z,36.24
2022-08-03T17:28:58.109Z,36.18
2022-08-03T17:31:22.920Z,36.23
2022-08-03T17:33:35.585Z,36.22
2022-08-03T17:35:39.104Z,35.92
2022-08-03T17:38:04.045Z,35.94
2022-08-03T17:40:08.216Z,35.94
2022-08-03T17:42:29.258Z,36.00
2022-08-03T17:44:46.024Z,35.86
2022-08-03T17:46:52.201Z,35.77
2022-08-03T17:48:57.090Z,35.78
2022-08-03T17:51:07.338Z,35.82
2022-08-03T17:53:25.423Z,35.61
2022-08-03T17:55:56.942Z,35.50
2022-08-03T17:58:02.230Z,35.53
2022-08-03T18:00:22.939Z,35.56
2022-08-03T18:02:55.576Z,35.48
2022-08-03T18:05:16.369Z,35.43
2022-08-03T18:07:23.378Z,35.48
2022-08-03T18:10:03.864Z,35.45
2022-08-03T18:12:17.797Z,35.27
2022-08-03T18:14:28.543Z,35.14
2022-08-03T18:16:35.641Z,34.97
2022-08-03T18:18:45.103Z,34.78
2022-08-03T18:20:53.489Z,34.57
2022-08-03T18:22:57.926Z,34.30
2022-08-03T18:25:09.478Z,34.13
2022-08-03T18:27:19.432Z,33.97
2022-08-03T18:29:23.734Z,33.80
2022-08-03T18:32:00.471Z,33.74
2022-08-03T18:34:17.506Z,33.66
2022-08-03T18:36:22.081Z,33.59
2022-08-03T18:38:43.569Z,33.54
2022-08-03T18:40:50.098Z,33.55
2022-08-03T18:42:54.840Z,33.50
2022-08-03T18:44:58.530Z,33.42
2022-08-03T18:47:51.520Z,33.30
2022-08-03T18:50:08.587Z,33.23
2022-08-03T18:52:17.627Z,33.16
2022-08-03T18:54:57.256Z,33.13
2022-08-03T18:56:54.923Z,32.93
2022-08-03T18:59:02.588Z,32.92
2022-08-03T19:01:15.223Z,32.86
2022-08-03T19:03:43.391Z,32.79
2022-08-03T19:06:06.324Z,32.68
2022-08-03T19:08:17.047Z,32.73
2022-08-03T19:10:21.335Z,32.75
2022-08-03T19:12:39.575Z,32.77
2022-08-03T19:14:48.323Z,32.71
2022-08-03T19:17:00.555Z,32.68
2022-08-03T19:19:05.660Z,32.62
2022-08-03T19:21:12.759Z,32.55
2022-08-03T19:23:23.998Z,32.41
2022-08-03T19:25:34.508Z,32.34
2022-08-03T19:27:40.414Z,32.33
2022-08-03T19:29:59.820Z,32.29
2022-08-03T19:32:05.040Z,32.25
2022-08-03T19:34:08.683Z,32.19
2022-08-03T19:36:15.035Z,32.16
2022-08-03T19:38:27.628Z,32.11
2022-08-03T19:40:34.270Z,32.08
2022-08-03T19:42:45.415Z,32.06
2022-08-03T19:44:52.842Z,31.98
2022-08-03T19:47:01.630Z,31.89
2022-08-03T19:49:10.345Z,31.84
2022-08-03T19:51:15.710Z,31.74
2022-08-03T19:53:21.425Z,31.70
2022-08-03T19:55:29.656Z,31.62
2022-08-03T19:57:37.205Z,31.59
2022-08-03T19:59:49.751Z,31.56
2022-08-03T20:01:54.094Z,31.55
2022-08-03T20:03:58.517Z,31.47
2022-08-03T20:06:03.701Z,31.40
2022-08-03T20:08:09.474Z,31.31
2022-08-03T20:10:13.344Z,31.31
2022-08-03T20:12:19.278Z,31.27
2022-08-03T20:14:32.032Z,31.21
2022-08-03T20:16:35.658Z,31.18
2022-08-03T20:18:39.662Z,31.11
2022-08-03T20:20:43.240Z,30.91
2022-08-03T20:22:52.653Z,30.98
2022-08-03T20:24:58.675Z,30.92
2022-08-03T20:27:03.713Z,30.94
2022-08-03T20:29:12.825Z,30.97
2022-08-03T20:31:16.660Z,30.96
2022-08-03T20:33:20.842Z,30.90
2022-08-03T20:35:38.236Z,30.88
2022-08-03T20:37:45.483Z,30.85
2022-08-03T20:39:49.762Z,30.81
2022-08-03T20:41:54.958Z,30.77
2022-08-03T20:44:00.898Z,30.74
2022-08-03T20:46:29.170Z,30.60
2022-08-03T20:48:28.011Z,30.67
2022-08-03T20:50:32.449Z,30.62
2022-08-03T20:52:43.978Z,30.57
2022-08-03T20:54:53.391Z,30.55
2022-08-03T20:56:58.812Z,30.54
2022-08-03T20:59:04.100Z,30.50
2022-08-03T21:01:07.549Z,30.46
2022-08-03T21:03:12.567Z,30.40
2022-08-03T21:05:16.146Z,30.19
2022-08-03T21:07:25.579Z,30.15
2022-08-03T21:09:52.960Z,30.02
2022-08-03T21:12:04.117Z,30.07
2022-08-03T21:14:16.325Z,30.03
2022-08-03T21:16:21.514Z,30.02
2022-08-03T21:18:26.893Z,29.95
2022-08-03T21:20:34.218Z,29.84
2022-08-03T21:22:39.737Z,29.58
2022-08-03T21:24:44.660Z,29.45
2022-08-03T21:26:50.150Z,29.28
2022-08-03T21:28:56.924Z,29.22
2022-08-03T21:31:00.491Z,29.21
2022-08-03T21:33:06.553Z,29.26
2022-08-03T21:35:11.194Z,29.25
2022-08-03T21:37:15.764Z,29.16
2022-08-03T21:39:21.147Z,29.18
2022-08-03T21:41:24.720Z,29.16
2022-08-03T21:43:28.277Z,29.03
2022-08-03T21:45:36.470Z,29.09
2022-08-03T21:47:45.156Z,29.13
2022-08-03T21:50:06.649Z,29.16
2022-08-03T21:52:13.921Z,29.06
2022-08-03T21:54:19.131Z,28.77
2022-08-03T21:56:23.380Z,28.42
2022-08-03T21:58:30.946Z,28.36
2022-08-03T22:00:35.961Z,28.51
2022-08-03T22:02:42.632Z,28.53
2022-08-03T22:04:53.250Z,28.48
2022-08-03T22:07:00.158Z,28.49
2022-08-03T22:09:06.422Z,28.64
2022-08-03T22:11:10.975Z,28.65
2022-08-03T22:13:19.480Z,28.69
2022-08-03T22:15:40.682Z,28.62
2022-08-03T22:17:55.037Z,28.56
2022-08-03T22:20:00.036Z,28.46
2022-08-03T22:22:06.073Z,28.50
2022-08-03T22:24:09.822Z,28.49
2022-08-03T22:26:18.913Z,28.42
2022-08-03T22:28:38.664Z,28.44
2022-08-03T22:30:44.256Z,28.42
2022-08-03T22:32:50.308Z,28.42
2022-08-03T22:34:54.779Z,28.44
2022-08-03T22:37:03.045Z,28.36
2022-08-03T22:39:07.071Z,28.36
2022-08-03T22:41:10.663Z,28.33
2022-08-03T22:43:14.454Z,28.33
2022-08-03T22:46:08.930Z,28.33
2022-08-03T22:47:44.460Z,28.28
2022-08-03T22:49:49.998Z,28.22
2022-08-03T22:52:15.888Z,28.23
2022-08-03T22:54:19.934Z,28.20
2022-08-03T22:56:24.214Z,28.17
2022-08-03T22:58:27.669Z,28.15
2022-08-03T23:00:31.247Z,28.05
2022-08-03T23:02:37.308Z,27.91
2022-08-03T23:04:43.384Z,27.90
2022-08-03T23:06:52.072Z,27.81
2022-08-03T23:08:56.441Z,27.76
2022-08-03T23:11:05.847Z,27.76
2022-08-03T23:13:09.504Z,27.78
2022-08-03T23:15:14.530Z,27.74
2022-08-03T23:17:20.691Z,27.75
2022-08-03T23:19:27.536Z,27.77
2022-08-03T23:21:53.733Z,27.72
2022-08-03T23:24:00.497Z,27.74
2022-08-03T23:26:04.522Z,27.69
2022-08-03T23:28:10.048Z,27.69
2022-08-03T23:30:13.984Z,27.57
2022-08-03T23:32:21.940Z,27.41
2022-08-03T23:34:44.060Z,27.44
2022-08-03T23:36:50.688Z,27.43
2022-08-03T23:38:55.408Z,27.41
2022-08-03T23:41:00.759Z,27.44
2022-08-03T23:43:05.440Z,27.17
2022-08-03T23:45:10.238Z,27.38
2022-08-03T23:47:13.971Z,27.35
2022-08-03T23:49:17.533Z,27.35
2022-08-03T23:51:28.715Z,27.34
2022-08-03T23:53:41.840Z,27.27
2022-08-03T23:56:14.022Z,27.15
2022-08-03T23:58:31.712Z,27.15
